createdAt,value
2023-04-27T00:01:39.536Z,101242.78
2023-04-27T00:04:45.830Z,101236.03
2023-04-27T00:07:51.842Z,101236.38
2023-04-27T00:10:59.288Z,101235.03
2023-04-27T00:14:04.972Z,101232.72
2023-04-27T00:17:11.349Z,101230.81
2023-04-27T00:20:17.396Z,101236.69
2023-04-27T00:23:24.159Z,101230.25
2023-04-27T00:26:30.266Z,101225.66
2023-04-27T00:29:38.312Z,101212.16
2023-04-27T00:32:45.363Z,101217.50
2023-04-27T00:35:51.507Z,101218.03
2023-04-27T00:38:57.807Z,101218.84
2023-04-27T00:42:03.752Z,101218.16
2023-04-27T00:45:11.149Z,101222.31
2023-04-27T00:48:17.193Z,101224.97
2023-04-27T00:51:28.192Z,101218.66
2023-04-27T00:54:35.037Z,101216.25
2023-04-27T00:57:41.669Z,101221.19
2023-04-27T01:00:49.586Z,101236.28
2023-04-27T01:03:55.764Z,101230.28
2023-04-27T01:07:03.269Z,101222.81
2023-04-27T01:10:11.252Z,101220.34
2023-04-27T01:13:17.109Z,101223.84
2023-04-27T01:16:23.586Z,101227.31
2023-04-27T01:19:29.568Z,101224.34
2023-04-27T01:22:35.272Z,101218.59
2023-04-27T01:25:41.086Z,101210.50
2023-04-27T01:28:47.455Z,101220.34
2023-04-27T01:31:54.009Z,101217.84
2023-04-27T01:35:02.490Z,101220.91
2023-04-27T01:38:09.052Z,101216.09
2023-04-27T01:41:14.797Z,101222.09
2023-04-27T01:44:21.393Z,101224.81
2023-04-27T01:47:27.969Z,101229.88
2023-04-27T01:50:33.782Z,101226.56
2023-04-27T01:53:39.419Z,101229.16
2023-04-27T01:56:45.049Z,101227.03
2023-04-27T01:59:50.974Z,101236.72
2023-04-27T02:02:57.995Z,101242.13
2023-04-27T02:06:03.457Z,101233.34
2023-04-27T02:09:09.564Z,101238.63
2023-04-27T02:12:18.772Z,101237.25
2023-04-27T02:15:24.698Z,101246.94
2023-04-27T02:18:30.833Z,101246.75
2023-04-27T02:21:36.563Z,101245.81
2023-04-27T02:24:42.308Z,101252.03
2023-04-27T02:27:48.038Z,101256.31
2023-04-27T02:30:54.253Z,101258.88
2023-04-27T02:33:59.749Z,101261.13
2023-04-27T02:37:05.472Z,101269.50
2023-04-27T02:40:11.514Z,101273.66
2023-04-27T02:43:17.309Z,101275.69
2023-04-27T02:46:23.707Z,101273.41
2023-04-27T02:49:29.371Z,101285.00
2023-04-27T02:52:35.486Z,101293.97
2023-04-27T02:55:49.536Z,101282.59
2023-04-27T02:58:55.161Z,101284.94
2023-04-27T03:02:01.287Z,101291.19
2023-04-27T03:05:07.572Z,101291.50
2023-04-27T03:08:13.813Z,101288.84
2023-04-27T03:11:19.430Z,101293.09
2023-04-27T03:14:25.321Z,101292.25
2023-04-27T03:17:31.441Z,101293.88
2023-04-27T03:20:37.411Z,101291.16
2023-04-27T03:23:43.453Z,101289.78
2023-04-27T03:26:49.141Z,101287.69
2023-04-27T03:29:55.069Z,101290.19
2023-04-27T03:33:00.902Z,101289.31
2023-04-27T03:36:09.011Z,101301.09
2023-04-27T03:39:15.465Z,101292.06
2023-04-27T03:42:22.469Z,101293.75
2023-04-27T03:45:29.156Z,101290.25
2023-04-27T03:48:35.302Z,101298.63
2023-04-27T03:51:42.862Z,101297.31
2023-04-27T03:54:49.015Z,101304.06
2023-04-27T03:57:54.614Z,101293.75
2023-04-27T04:01:00.343Z,101295.00
2023-04-27T04:04:07.095Z,101298.06
2023-04-27T04:07:12.751Z,101295.41
2023-04-27T04:10:18.922Z,101298.72
2023-04-27T04:13:30.158Z,101290.97
2023-04-27T04:16:36.510Z,101292.44
2023-04-27T04:19:41.646Z,101300.19
2023-04-27T04:22:47.010Z,101301.56
2023-04-27T04:25:52.538Z,101313.41
2023-04-27T04:28:59.371Z,101312.44
2023-04-27T04:32:05.661Z,101321.19
2023-04-27T04:35:11.690Z,101322.31
2023-04-27T04:38:18.351Z,101326.75
2023-04-27T04:41:24.171Z,101331.84
2023-04-27T04:44:29.581Z,101326.91
2023-04-27T04:47:35.460Z,101333.47
2023-04-27T04:50:42.517Z,101337.09
2023-04-27T04:53:48.298Z,101336.50
2023-04-27T04:56:54.843Z,101349.19
2023-04-27T05:00:00.374Z,101347.50
2023-04-27T05:03:07.945Z,101352.84
2023-04-27T05:06:13.902Z,101357.88
2023-04-27T05:09:19.441Z,101364.41
2023-04-27T05:12:25.482Z,101368.34
2023-04-27T05:15:30.939Z,101366.47
2023-04-27T05:18:36.646Z,101371.00
2023-04-27T05:21:42.126Z,101377.31
2023-04-27T05:24:47.152Z,101381.66
2023-04-27T05:27:52.579Z,101375.25
2023-04-27T05:30:58.338Z,101379.38
2023-04-27T05:34:04.097Z,101379.78
2023-04-27T05:37:10.212Z,101377.94
2023-04-27T05:40:16.031Z,101380.50
2023-04-27T05:43:21.729Z,101390.31
2023-04-27T05:46:27.472Z,101386.22
2023-04-27T05:49:32.774Z,101392.47
2023-04-27T05:52:39.323Z,101397.81
2023-04-27T05:55:44.424Z,101399.91
2023-04-27T05:58:50.219Z,101400.63
2023-04-27T06:01:55.328Z,101401.31
2023-04-27T06:05:00.792Z,101406.47
2023-04-27T06:08:06.658Z,101412.72
2023-04-27T06:11:12.349Z,101404.09
2023-04-27T06:14:18.002Z,101401.75
2023-04-27T06:17:23.438Z,101413.63
2023-04-27T06:20:28.894Z,101417.53
2023-04-27T06:23:34.688Z,101421.59
2023-04-27T06:26:40.028Z,101423.53
2023-04-27T06:29:45.325Z,101431.47
2023-04-27T06:32:51.652Z,101429.47
2023-04-27T06:35:57.123Z,101433.31
2023-04-27T06:39:02.779Z,101427.38
2023-04-27T06:42:08.160Z,101438.25
2023-04-27T06:45:13.815Z,101435.56
2023-04-27T06:48:19.447Z,101436.50
2023-04-27T06:51:25.088Z,101447.16
2023-04-27T06:54:30.661Z,101443.84
2023-04-27T06:57:36.898Z,101453.53
2023-04-27T07:00:42.808Z,101459.13
2023-04-27T07:03:48.728Z,101451.25
2023-04-27T07:06:56.493Z,101451.59
2023-04-27T07:10:01.884Z,101455.78
2023-04-27T07:13:09.191Z,101451.03
2023-04-27T07:16:16.766Z,101445.72
2023-04-27T07:19:22.323Z,101441.53
2023-04-27T07:22:29.281Z,101438.69
2023-04-27T07:25:35.641Z,101443.50
2023-04-27T07:28:41.068Z,101442.44
2023-04-27T07:31:47.146Z,101447.25
2023-04-27T07:34:54.545Z,101445.34
2023-04-27T07:38:03.078Z,101443.63
2023-04-27T07:41:09.277Z,101446.16
2023-04-27T07:44:15.417Z,101449.97
2023-04-27T07:47:22.219Z,101450.09
2023-04-27T07:50:30.224Z,101453.78
2023-04-27T07:53:36.243Z,101457.22
2023-04-27T07:56:43.330Z,101459.63
2023-04-27T07:59:49.040Z,101461.03
2023-04-27T08:02:55.640Z,101461.75
2023-04-27T08:06:01.896Z,101458.50
2023-04-27T08:09:08.217Z,101466.47
2023-04-27T08:12:13.889Z,101466.31
2023-04-27T08:15:19.111Z,101462.59
2023-04-27T08:18:25.675Z,101469.31
2023-04-27T08:21:31.404Z,101470.13
2023-04-27T08:24:37.674Z,101472.25
2023-04-27T08:27:43.607Z,101473.28
2023-04-27T08:30:49.603Z,101468.44
2023-04-27T08:33:55.453Z,101479.56
2023-04-27T08:37:02.719Z,101471.81
2023-04-27T08:40:10.186Z,101484.34
2023-04-27T08:43:16.102Z,101479.22
2023-04-27T08:46:22.588Z,101478.09
2023-04-27T08:49:28.505Z,101494.63
2023-04-27T08:52:33.840Z,101482.25
2023-04-27T08:55:39.642Z,101490.38
2023-04-27T08:58:45.445Z,101489.25
2023-04-27T09:01:51.535Z,101483.97
2023-04-27T09:04:57.914Z,101490.00
2023-04-27T09:08:08.429Z,101481.91
2023-04-27T09:11:15.977Z,101478.47
2023-04-27T09:14:23.495Z,101488.78
2023-04-27T09:17:30.954Z,101490.47
2023-04-27T09:20:47.401Z,101488.88
2023-04-27T09:23:52.964Z,101489.19
2023-04-27T09:27:00.643Z,101489.72
2023-04-27T09:30:14.733Z,101485.88
2023-04-27T09:33:28.776Z,101472.13
2023-04-27T09:36:34.758Z,101476.75
2023-04-27T09:39:42.343Z,101481.31
2023-04-27T09:42:47.961Z,101465.91
2023-04-27T09:45:55.663Z,101471.72
2023-04-27T09:49:04.724Z,101467.59
2023-04-27T09:52:11.051Z,101469.53
2023-04-27T09:55:33.022Z,101471.16
2023-04-27T09:59:09.144Z,101469.00
2023-04-27T10:05:56.576Z,101458.03
2023-04-27T10:09:06.905Z,101450.72
2023-04-27T10:12:23.817Z,101458.78
2023-04-27T10:15:30.380Z,101450.94
2023-04-27T10:18:35.902Z,101454.97
2023-04-27T10:21:54.670Z,101445.56
2023-04-27T10:24:59.903Z,101456.34
2023-04-27T10:28:08.463Z,101457.16
2023-04-27T10:31:15.366Z,101462.59
2023-04-27T10:34:22.305Z,101451.00
2023-04-27T10:37:43.737Z,101441.78
2023-04-27T10:40:57.668Z,101446.66
2023-04-27T10:44:17.656Z,101448.53
2023-04-27T10:47:25.014Z,101425.88
2023-04-27T10:50:32.400Z,101431.25
2023-04-27T10:53:38.409Z,101434.78
2023-04-27T10:56:43.830Z,101440.69
2023-04-27T10:59:52.333Z,101449.28
2023-04-27T11:03:21.297Z,101442.47
2023-04-27T11:06:29.031Z,101438.69
2023-04-27T11:09:35.220Z,101432.97
2023-04-27T11:12:40.549Z,101424.75
2023-04-27T11:15:56.888Z,101423.66
2023-04-27T11:19:07.040Z,101429.47
2023-04-27T11:22:12.736Z,101425.50
2023-04-27T11:25:27.417Z,101422.56
2023-04-27T11:28:32.451Z,101419.34
2023-04-27T11:31:51.970Z,101420.53
2023-04-27T11:34:59.602Z,101425.13
2023-04-27T11:38:05.668Z,101431.88
2023-04-27T11:41:11.347Z,101415.50
2023-04-27T11:44:16.792Z,101422.72
2023-04-27T11:47:24.177Z,101426.06
2023-04-27T11:50:29.833Z,101414.91
2023-04-27T11:53:39.027Z,101424.94
2023-04-27T11:56:45.760Z,101417.19
2023-04-27T11:59:51.389Z,101415.19
2023-04-27T12:02:58.495Z,101415.97
2023-04-27T12:06:21.677Z,101416.31
2023-04-27T12:09:29.310Z,101417.72
2023-04-27T12:12:34.638Z,101418.38
2023-04-27T12:15:40.387Z,101415.09
2023-04-27T12:18:45.771Z,101407.41
2023-04-27T12:21:52.585Z,101410.03
2023-04-27T12:24:58.378Z,101415.72
2023-04-27T12:28:04.096Z,101409.78
2023-04-27T12:31:13.620Z,101415.50
2023-04-27T12:34:19.321Z,101404.63
2023-04-27T12:37:26.847Z,101409.81
2023-04-27T12:40:33.701Z,101410.19
2023-04-27T12:43:41.527Z,101411.00
2023-04-27T12:46:48.859Z,101409.72
2023-04-27T12:49:54.526Z,101413.66
2023-04-27T12:53:00.789Z,101416.66
2023-04-27T12:56:06.688Z,101403.50
2023-04-27T12:59:11.918Z,101405.53
2023-04-27T13:02:17.581Z,101401.63
2023-04-27T13:05:23.100Z,101407.38
2023-04-27T13:08:28.449Z,101413.91
2023-04-27T13:11:33.598Z,101411.09
2023-04-27T13:14:38.919Z,101398.75
2023-04-27T13:17:44.163Z,101398.69
2023-04-27T13:20:49.451Z,101386.72
2023-04-27T13:23:55.104Z,101392.44
2023-04-27T13:27:00.138Z,101395.50
2023-04-27T13:30:05.841Z,101385.94
2023-04-27T13:33:23.235Z,101372.88
2023-04-27T13:36:29.867Z,101373.00
2023-04-27T13:39:38.025Z,101381.00
2023-04-27T13:42:43.080Z,101381.13
2023-04-27T13:45:50.155Z,101377.94
2023-04-27T13:48:55.555Z,101376.00
2023-04-27T13:52:01.333Z,101366.34
2023-04-27T13:55:08.860Z,101368.25
2023-04-27T13:58:14.274Z,101366.00
2023-04-27T14:01:20.310Z,101363.78
2023-04-27T14:04:25.595Z,101360.25
2023-04-27T14:07:32.269Z,101359.66
2023-04-27T14:10:38.858Z,101362.44
2023-04-27T14:13:44.585Z,101360.16
2023-04-27T14:16:51.575Z,101353.16
2023-04-27T14:19:57.257Z,101346.16
2023-04-27T14:23:05.501Z,101349.28
2023-04-27T14:26:11.168Z,101347.38
2023-04-27T14:29:16.410Z,101349.09
2023-04-27T14:32:22.744Z,101346.75
2023-04-27T14:35:28.696Z,101348.06
2023-04-27T14:38:34.202Z,101344.69
2023-04-27T14:41:39.891Z,101353.06
2023-04-27T14:44:47.590Z,101350.31
2023-04-27T14:47:54.868Z,101349.88
2023-04-27T14:51:00.427Z,101345.94
2023-04-27T14:54:05.764Z,101347.63
2023-04-27T14:57:11.247Z,101340.16
2023-04-27T15:00:17.847Z,101332.09
2023-04-27T15:03:23.713Z,101324.03
2023-04-27T15:06:30.652Z,101322.97
2023-04-27T15:09:36.118Z,101331.22
2023-04-27T15:12:42.082Z,101324.38
2023-04-27T15:15:47.426Z,101333.81
2023-04-27T15:18:52.865Z,101332.78
2023-04-27T15:21:58.288Z,101327.53
2023-04-27T15:25:03.525Z,101321.09
2023-04-27T15:28:08.963Z,101326.09
2023-04-27T15:31:14.309Z,101321.84
2023-04-27T15:34:19.817Z,101326.00
2023-04-27T15:37:28.326Z,101329.06
2023-04-27T15:40:34.641Z,101330.25
2023-04-27T15:43:40.104Z,101329.13
2023-04-27T15:46:46.191Z,101329.41
2023-04-27T15:49:57.310Z,101326.06
2023-04-27T15:53:03.314Z,101326.00
2023-04-27T15:56:08.666Z,101321.25
2023-04-27T15:59:14.255Z,101327.59
2023-04-27T16:02:20.222Z,101330.34
2023-04-27T16:05:26.586Z,101333.06
2023-04-27T16:08:32.807Z,101328.97
2023-04-27T16:11:38.878Z,101336.53
2023-04-27T16:14:44.152Z,101332.03
2023-04-27T16:17:49.414Z,101331.78
2023-04-27T16:20:54.909Z,101336.13
2023-04-27T16:24:00.426Z,101340.50
2023-04-27T16:27:05.822Z,101343.56
2023-04-27T16:30:11.654Z,101346.44
2023-04-27T16:33:18.716Z,101338.50
2023-04-27T16:36:24.100Z,101351.19
2023-04-27T16:39:29.583Z,101363.59
2023-04-27T16:42:35.349Z,101364.22
2023-04-27T16:45:42.305Z,101357.47
2023-04-27T16:48:48.340Z,101361.66
2023-04-27T16:51:54.667Z,101361.75
2023-04-27T16:54:59.908Z,101364.63
2023-04-27T16:58:07.735Z,101369.63
2023-04-27T17:01:13.621Z,101372.16
2023-04-27T17:04:19.568Z,101371.31
2023-04-27T17:07:28.962Z,101373.34
2023-04-27T17:10:36.947Z,101377.50
2023-04-27T17:13:42.628Z,101376.00
2023-04-27T17:16:48.353Z,101385.19
2023-04-27T17:19:54.156Z,101382.78
2023-04-27T17:22:59.893Z,101382.53
2023-04-27T17:26:07.347Z,101387.72
2023-04-27T17:29:13.228Z,101386.38
2023-04-27T17:32:18.982Z,101390.47
2023-04-27T17:35:24.653Z,101384.25
2023-04-27T17:38:30.783Z,101391.81
2023-04-27T17:41:37.268Z,101389.66
2023-04-27T17:44:43.289Z,101385.59
2023-04-27T17:47:49.223Z,101389.63
2023-04-27T17:50:55.214Z,101391.00
2023-04-27T17:54:00.728Z,101390.69
2023-04-27T17:57:06.172Z,101394.97
2023-04-27T18:00:14.746Z,101402.53
2023-04-27T18:03:19.725Z,101398.50
2023-04-27T18:06:25.201Z,101397.91
2023-04-27T18:09:32.826Z,101399.47
2023-04-27T18:12:38.666Z,101397.53
2023-04-27T18:15:43.946Z,101403.41
2023-04-27T18:18:49.502Z,101395.75
2023-04-27T18:21:55.286Z,101395.81
2023-04-27T18:25:01.139Z,101402.22
2023-04-27T18:28:06.449Z,101406.28
2023-04-27T18:31:16.622Z,101405.34
2023-04-27T18:34:21.675Z,101405.59
2023-04-27T18:37:27.274Z,101411.41
2023-04-27T18:40:36.513Z,101419.16
2023-04-27T18:43:41.688Z,101418.28
2023-04-27T18:46:47.641Z,101422.03
2023-04-27T18:49:53.518Z,101419.56
2023-04-27T18:52:59.517Z,101428.66
2023-04-27T18:56:06.978Z,101430.13
2023-04-27T18:59:12.706Z,101436.47
2023-04-27T19:02:18.735Z,101445.66
2023-04-27T19:05:24.555Z,101441.78
2023-04-27T19:08:30.028Z,101453.47
2023-04-27T19:11:36.225Z,101463.97
2023-04-27T19:14:41.441Z,101466.09
2023-04-27T19:17:50.516Z,101476.50
2023-04-27T19:20:58.283Z,101470.47
2023-04-27T19:24:04.006Z,101469.13
2023-04-27T19:27:10.911Z,101481.19
2023-04-27T19:30:16.593Z,101479.91
2023-04-27T19:33:22.277Z,101485.28
2023-04-27T19:36:28.620Z,101486.84
2023-04-27T19:39:34.513Z,101495.81
2023-04-27T19:42:40.411Z,101505.44
2023-04-27T19:45:46.390Z,101508.72
2023-04-27T19:48:53.658Z,101512.63
2023-04-27T19:52:00.064Z,101516.13
2023-04-27T19:55:06.713Z,101513.44
2023-04-27T19:58:12.106Z,101518.31
2023-04-27T20:01:17.360Z,101522.47
2023-04-27T20:04:23.236Z,101529.31
2023-04-27T20:07:30.137Z,101530.44
2023-04-27T20:10:35.607Z,101530.44
2023-04-27T20:13:41.963Z,101539.38
2023-04-27T20:16:48.002Z,101538.34
2023-04-27T20:19:56.617Z,101538.53
2023-04-27T20:23:01.953Z,101542.72
2023-04-27T20:26:07.447Z,101541.06
2023-04-27T20:29:13.290Z,101549.47
2023-04-27T20:32:18.741Z,101546.13
2023-04-27T20:35:24.468Z,101543.22
2023-04-27T20:38:30.169Z,101542.88
2023-04-27T20:41:36.013Z,101543.16
2023-04-27T20:44:42.191Z,101541.53
2023-04-27T20:47:47.985Z,101536.38
2023-04-27T20:50:53.666Z,101542.78
2023-04-27T20:53:59.913Z,101542.22
2023-04-27T20:57:11.151Z,101546.06
2023-04-27T21:00:17.301Z,101545.38
2023-04-27T21:03:24.426Z,101552.47
2023-04-27T21:06:30.055Z,101565.09
2023-04-27T21:09:35.569Z,101559.97
2023-04-27T21:12:40.619Z,101557.28
2023-04-27T21:15:46.148Z,101556.13
2023-04-27T21:18:51.527Z,101558.56
2023-04-27T21:21:57.504Z,101560.19
2023-04-27T21:25:05.102Z,101557.97
2023-04-27T21:28:11.200Z,101549.81
2023-04-27T21:31:18.207Z,101558.47
2023-04-27T21:34:25.464Z,101557.59
2023-04-27T21:37:30.950Z,101555.84
2023-04-27T21:40:36.803Z,101561.22
2023-04-27T21:43:42.388Z,101563.66
2023-04-27T21:46:48.289Z,101563.06
2023-04-27T21:49:53.583Z,101561.81
2023-04-27T21:52:59.599Z,101562.38
2023-04-27T21:56:05.964Z,101561.69
2023-04-27T21:59:11.609Z,101548.53
2023-04-27T22:02:17.640Z,101551.31
2023-04-27T22:05:23.942Z,101549.47
2023-04-27T22:08:30.075Z,101540.59
2023-04-27T22:11:35.746Z,101555.03
2023-04-27T22:14:42.152Z,101550.41
2023-04-27T22:17:47.940Z,101560.84
2023-04-27T22:20:55.240Z,101560.75
2023-04-27T22:24:00.786Z,101560.38
2023-04-27T22:27:06.657Z,101562.75
2023-04-27T22:30:12.644Z,101566.66
2023-04-27T22:33:18.652Z,101566.31
2023-04-27T22:36:24.568Z,101574.44
2023-04-27T22:39:32.068Z,101583.28
2023-04-27T22:42:37.642Z,101582.38
2023-04-27T22:45:43.399Z,101576.88
2023-04-27T22:48:50.618Z,101587.13
2023-04-27T22:51:57.951Z,101578.97
2023-04-27T22:55:06.547Z,101585.81
2023-04-27T22:58:12.708Z,101585.69
2023-04-27T23:01:18.868Z,101585.16
2023-04-27T23:04:24.656Z,101594.22
2023-04-27T23:07:30.527Z,101585.16
2023-04-27T23:10:39.123Z,101591.13
2023-04-27T23:13:44.816Z,101585.91
2023-04-27T23:16:50.860Z,101588.00
2023-04-27T23:19:58.022Z,101579.16
2023-04-27T23:23:03.463Z,101581.47
2023-04-27T23:26:16.631Z,101579.97
2023-04-27T23:29:22.031Z,101577.16
2023-04-27T23:32:27.898Z,101568.44
2023-04-27T23:35:34.194Z,101581.47
2023-04-27T23:38:39.776Z,101573.44
2023-04-27T23:41:45.299Z,101581.53
2023-04-27T23:44:51.248Z,101587.09
2023-04-27T23:47:58.161Z,101577.31
2023-04-27T23:51:06.313Z,101571.50
2023-04-27T23:54:12.102Z,101558.28
2023-04-27T23:57:17.794Z,101564.66
